sensor_id;sensor_type;location;lat;lon;timestamp;P1;durP1;ratioP1;P2;durP2;ratioP2
14030;SDS011;7090;49.436;8.490;2023-03-11T00:01:13;8.23;;;7.93;;
14030;SDS011;7090;49.436;8.490;2023-03-11T00:03:39;8.60;;;8.30;;
14030;SDS011;7090;49.436;8.490;2023-03-11T00:06:04;8.73;;;8.43;;
14030;SDS011;7090;49.436;8.490;2023-03-11T00:08:31;8.10;;;7.80;;
14030;SDS011;7090;49.436;8.490;2023-03-11T00:10:57;7.87;;;7.57;;
14030;SDS011;7090;49.436;8.490;2023-03-11T00:13:24;7.93;;;7.63;;
14030;SDS011;7090;49.436;8.490;2023-03-11T00:15:52;8.10;;;7.80;;
14030;SDS011;7090;49.436;8.490;2023-03-11T00:18:23;8.10;;;7.80;;
14030;SDS011;7090;49.436;8.490;2023-03-11T00:20:52;8.07;;;7.63;;
14030;SDS011;7090;49.436;8.490;2023-03-11T00:23:18;7.97;;;7.67;;
14030;SDS011;7090;49.436;8.490;2023-03-11T00:25:44;8.20;;;7.90;;
14030;SDS011;7090;49.436;8.490;2023-03-11T00:28:11;8.10;;;7.80;;
14030;SDS011;7090;49.436;8.490;2023-03-11T00:30:39;7.83;;;7.53;;
14030;SDS011;7090;49.436;8.490;2023-03-11T00:33:06;8.37;;;7.97;;
14030;SDS011;7090;49.436;8.490;2023-03-11T00:35:33;8.03;;;7.73;;
14030;SDS011;7090;49.436;8.490;2023-03-11T00:38:04;7.90;;;7.60;;
14030;SDS011;7090;49.436;8.490;2023-03-11T00:40:32;8.23;;;7.83;;
14030;SDS011;7090;49.436;8.490;2023-03-11T00:42:58;9.07;;;8.27;;
14030;SDS011;7090;49.436;8.490;2023-03-11T00:45:24;8.17;;;7.87;;
14030;SDS011;7090;49.436;8.490;2023-03-11T00:47:51;7.60;;;7.30;;
14030;SDS011;7090;49.436;8.490;2023-03-11T00:50:21;8.40;;;8.10;;
14030;SDS011;7090;49.436;8.490;2023-03-11T00:52:49;8.20;;;7.90;;
14030;SDS011;7090;49.436;8.490;2023-03-11T00:55:17;7.77;;;7.47;;
14030;SDS011;7090;49.436;8.490;2023-03-11T00:57:46;8.53;;;8.13;;
14030;SDS011;7090;49.436;8.490;2023-03-11T01:00:12;8.23;;;7.93;;
14030;SDS011;7090;49.436;8.490;2023-03-11T01:02:40;7.80;;;7.50;;
14030;SDS011;7090;49.436;8.490;2023-03-11T01:05:05;8.03;;;7.73;;
14030;SDS011;7090;49.436;8.490;2023-03-11T01:07:31;8.53;;;8.13;;
14030;SDS011;7090;49.436;8.490;2023-03-11T01:09:57;7.80;;;7.50;;
14030;SDS011;7090;49.436;8.490;2023-03-11T01:12:23;8.30;;;8.00;;
14030;SDS011;7090;49.436;8.490;2023-03-11T01:14:49;8.50;;;8.20;;
14030;SDS011;7090;49.436;8.490;2023-03-11T01:17:14;8.07;;;7.57;;
14030;SDS011;7090;49.436;8.490;2023-03-11T01:19:40;7.00;;;6.70;;
14030;SDS011;7090;49.436;8.490;2023-03-11T01:22:06;7.30;;;7.00;;
14030;SDS011;7090;49.436;8.490;2023-03-11T01:24:32;7.20;;;6.80;;
14030;SDS011;7090;49.436;8.490;2023-03-11T01:26:57;7.03;;;6.73;;
14030;SDS011;7090;49.436;8.490;2023-03-11T01:29:23;7.40;;;7.10;;
14030;SDS011;7090;49.436;8.490;2023-03-11T01:31:49;7.67;;;7.37;;
14030;SDS011;7090;49.436;8.490;2023-03-11T01:34:14;6.90;;;6.70;;
14030;SDS011;7090;49.436;8.490;2023-03-11T01:36:40;7.50;;;7.20;;
14030;SDS011;7090;49.436;8.490;2023-03-11T01:39:06;7.30;;;7.10;;
14030;SDS011;7090;49.436;8.490;2023-03-11T01:41:31;8.27;;;7.57;;
14030;SDS011;7090;49.436;8.490;2023-03-11T01:43:57;7.90;;;7.60;;
14030;SDS011;7090;49.436;8.490;2023-03-11T01:46:25;7.97;;;7.63;;
14030;SDS011;7090;49.436;8.490;2023-03-11T01:49:11;8.07;;;7.77;;
14030;SDS011;7090;49.436;8.490;2023-03-11T01:51:38;7.53;;;7.23;;
14030;SDS011;7090;49.436;8.490;2023-03-11T01:54:08;7.73;;;7.43;;
14030;SDS011;7090;49.436;8.490;2023-03-11T01:56:37;7.40;;;7.10;;
14030;SDS011;7090;49.436;8.490;2023-03-11T01:59:04;7.87;;;7.57;;
14030;SDS011;7090;49.436;8.490;2023-03-11T02:01:32;7.60;;;7.30;;
14030;SDS011;7090;49.436;8.490;2023-03-11T02:03:58;7.70;;;7.40;;
14030;SDS011;7090;49.436;8.490;2023-03-11T02:06:26;72.33;;;9.20;;
14030;SDS011;7090;49.436;8.490;2023-03-11T02:08:53;7.73;;;7.30;;
14030;SDS011;7090;49.436;8.490;2023-03-11T02:11:20;7.80;;;7.50;;
14030;SDS011;7090;49.436;8.490;2023-03-11T02:13:51;7.67;;;7.37;;
14030;SDS011;7090;49.436;8.490;2023-03-11T02:16:20;7.73;;;7.43;;
14030;SDS011;7090;49.436;8.490;2023-03-11T02:18:46;7.80;;;7.50;;
14030;SDS011;7090;49.436;8.490;2023-03-11T02:21:21;7.60;;;7.30;;
14030;SDS011;7090;49.436;8.490;2023-03-11T02:26:23;7.97;;;7.67;;
14030;SDS011;7090;49.436;8.490;2023-03-11T02:28:54;8.80;;;8.10;;
14030;SDS011;7090;49.436;8.490;2023-03-11T02:31:21;7.33;;;7.10;;
14030;SDS011;7090;49.436;8.490;2023-03-11T02:33:49;8.40;;;7.70;;
14030;SDS011;7090;49.436;8.490;2023-03-11T02:36:35;8.43;;;8.03;;
14030;SDS011;7090;49.436;8.490;2023-03-11T02:39:03;7.93;;;7.63;;
14030;SDS011;7090;49.436;8.490;2023-03-11T02:41:30;8.67;;;8.07;;
14030;SDS011;7090;49.436;8.490;2023-03-11T02:43:57;8.33;;;8.03;;
14030;SDS011;7090;49.436;8.490;2023-03-11T02:46:24;8.37;;;7.97;;
14030;SDS011;7090;49.436;8.490;2023-03-11T02:48:50;7.60;;;7.30;;
14030;SDS011;7090;49.436;8.490;2023-03-11T02:51:16;8.03;;;7.63;;
14030;SDS011;7090;49.436;8.490;2023-03-11T02:53:46;7.70;;;7.40;;
14030;SDS011;7090;49.436;8.490;2023-03-11T02:56:14;7.93;;;7.60;;
14030;SDS011;7090;49.436;8.490;2023-03-11T02:58:40;8.70;;;8.20;;
14030;SDS011;7090;49.436;8.490;2023-03-11T03:01:05;7.83;;;7.50;;
14030;SDS011;7090;49.436;8.490;2023-03-11T03:03:31;8.43;;;7.90;;
14030;SDS011;7090;49.436;8.490;2023-03-11T03:05:57;7.70;;;7.40;;
14030;SDS011;7090;49.436;8.490;2023-03-11T03:08:22;8.17;;;7.50;;
14030;SDS011;7090;49.436;8.490;2023-03-11T03:10:48;7.27;;;6.97;;
14030;SDS011;7090;49.436;8.490;2023-03-11T03:13:14;7.17;;;6.97;;
14030;SDS011;7090;49.436;8.490;2023-03-11T03:15:39;7.13;;;6.93;;
14030;SDS011;7090;49.436;8.490;2023-03-11T03:18:05;9.07;;;8.00;;
14030;SDS011;7090;49.436;8.490;2023-03-11T03:20:30;7.67;;;7.37;;
14030;SDS011;7090;49.436;8.490;2023-03-11T03:22:56;7.87;;;7.57;;
14030;SDS011;7090;49.436;8.490;2023-03-11T03:25:22;9.97;;;9.03;;
14030;SDS011;7090;49.436;8.490;2023-03-11T03:27:47;8.00;;;7.47;;
14030;SDS011;7090;49.436;8.490;2023-03-11T03:30:13;7.90;;;7.60;;
14030;SDS011;7090;49.436;8.490;2023-03-11T03:32:39;7.87;;;7.57;;
14030;SDS011;7090;49.436;8.490;2023-03-11T03:35:05;8.40;;;7.90;;
14030;SDS011;7090;49.436;8.490;2023-03-11T03:37:31;8.87;;;8.47;;
14030;SDS011;7090;49.436;8.490;2023-03-11T03:39:58;8.20;;;7.90;;
14030;SDS011;7090;49.436;8.490;2023-03-11T03:42:24;8.37;;;8.07;;
14030;SDS011;7090;49.436;8.490;2023-03-11T03:44:51;8.43;;;8.13;;
14030;SDS011;7090;49.436;8.490;2023-03-11T03:47:19;8.77;;;8.47;;
14030;SDS011;7090;49.436;8.490;2023-03-11T03:49:45;8.47;;;8.17;;
14030;SDS011;7090;49.436;8.490;2023-03-11T03:52:10;8.00;;;7.70;;
14030;SDS011;7090;49.436;8.490;2023-03-11T03:54:36;8.50;;;8.10;;
14030;SDS011;7090;49.436;8.490;2023-03-11T03:57:02;8.30;;;8.00;;
14030;SDS011;7090;49.436;8.490;2023-03-11T03:59:28;8.53;;;8.13;;
14030;SDS011;7090;49.436;8.490;2023-03-11T04:01:54;8.90;;;8.60;;
14030;SDS011;7090;49.436;8.490;2023-03-11T04:04:20;8.30;;;8.00;;
14030;SDS011;7090;49.436;8.490;2023-03-11T04:06:45;8.27;;;7.97;;
14030;SDS011;7090;49.436;8.490;2023-03-11T04:09:11;9.13;;;8.63;;
14030;SDS011;7090;49.436;8.490;2023-03-11T04:11:37;8.23;;;7.93;;
14030;SDS011;7090;49.436;8.490;2023-03-11T04:14:03;8.13;;;7.83;;
14030;SDS011;7090;49.436;8.490;2023-03-11T04:16:30;8.10;;;7.80;;
14030;SDS011;7090;49.436;8.490;2023-03-11T04:18:56;8.73;;;8.33;;
14030;SDS011;7090;49.436;8.490;2023-03-11T04:21:22;8.03;;;7.73;;
14030;SDS011;7090;49.436;8.490;2023-03-11T04:23:47;8.10;;;7.80;;
14030;SDS011;7090;49.436;8.490;2023-03-11T04:26:13;8.30;;;8.00;;
14030;SDS011;7090;49.436;8.490;2023-03-11T04:28:39;7.97;;;7.67;;
14030;SDS011;7090;49.436;8.490;2023-03-11T04:31:05;7.93;;;7.63;;
14030;SDS011;7090;49.436;8.490;2023-03-11T04:33:30;8.73;;;8.43;;
14030;SDS011;7090;49.436;8.490;2023-03-11T04:35:56;8.07;;;7.77;;
14030;SDS011;7090;49.436;8.490;2023-03-11T04:38:22;8.23;;;7.93;;
14030;SDS011;7090;49.436;8.490;2023-03-11T04:40:48;8.40;;;8.10;;
14030;SDS011;7090;49.436;8.490;2023-03-11T04:43:14;8.30;;;8.00;;
14030;SDS011;7090;49.436;8.490;2023-03-11T04:45:40;8.53;;;8.23;;
14030;SDS011;7090;49.436;8.490;2023-03-11T04:48:09;8.60;;;8.30;;
14030;SDS011;7090;49.436;8.490;2023-03-11T04:50:34;8.50;;;8.20;;
14030;SDS011;7090;49.436;8.490;2023-03-11T04:53:00;8.23;;;7.93;;
14030;SDS011;7090;49.436;8.490;2023-03-11T04:55:26;8.50;;;8.20;;
14030;SDS011;7090;49.436;8.490;2023-03-11T04:57:51;9.10;;;8.70;;
14030;SDS011;7090;49.436;8.490;2023-03-11T05:00:17;8.53;;;8.00;;
14030;SDS011;7090;49.436;8.490;2023-03-11T05:02:48;8.70;;;8.40;;
14030;SDS011;7090;49.436;8.490;2023-03-11T05:05:14;8.70;;;8.40;;
14030;SDS011;7090;49.436;8.490;2023-03-11T05:07:40;8.37;;;8.07;;
14030;SDS011;7090;49.436;8.490;2023-03-11T05:10:06;8.40;;;8.10;;
14030;SDS011;7090;49.436;8.490;2023-03-11T05:12:32;8.43;;;8.13;;
14030;SDS011;7090;49.436;8.490;2023-03-11T05:14:58;8.27;;;7.97;;
14030;SDS011;7090;49.436;8.490;2023-03-11T05:17:23;9.80;;;9.40;;
14030;SDS011;7090;49.436;8.490;2023-03-11T05:19:50;8.90;;;8.60;;
14030;SDS011;7090;49.436;8.490;2023-03-11T05:22:17;8.30;;;8.00;;
14030;SDS011;7090;49.436;8.490;2023-03-11T05:24:43;8.97;;;8.57;;
14030;SDS011;7090;49.436;8.490;2023-03-11T05:27:10;9.07;;;8.70;;
14030;SDS011;7090;49.436;8.490;2023-03-11T05:29:36;11.60;;;9.70;;
14030;SDS011;7090;49.436;8.490;2023-03-11T05:32:02;9.10;;;8.70;;
14030;SDS011;7090;49.436;8.490;2023-03-11T05:34:27;8.50;;;8.20;;
14030;SDS011;7090;49.436;8.490;2023-03-11T05:36:53;8.40;;;8.10;;
14030;SDS011;7090;49.436;8.490;2023-03-11T05:39:19;10.13;;;8.70;;
14030;SDS011;7090;49.436;8.490;2023-03-11T05:41:44;8.63;;;8.33;;
14030;SDS011;7090;49.436;8.490;2023-03-11T05:44:10;31.77;;;9.23;;
14030;SDS011;7090;49.436;8.490;2023-03-11T05:46:35;8.80;;;8.50;;
14030;SDS011;7090;49.436;8.490;2023-03-11T05:49:01;11.13;;;8.73;;
14030;SDS011;7090;49.436;8.490;2023-03-11T05:51:27;8.73;;;8.40;;
14030;SDS011;7090;49.436;8.490;2023-03-11T05:53:52;9.03;;;8.37;;
14030;SDS011;7090;49.436;8.490;2023-03-11T05:56:19;8.83;;;8.50;;
14030;SDS011;7090;49.436;8.490;2023-03-11T05:58:46;8.93;;;8.63;;
14030;SDS011;7090;49.436;8.490;2023-03-11T06:01:13;8.40;;;8.10;;
14030;SDS011;7090;49.436;8.490;2023-03-11T06:03:40;8.40;;;8.10;;
14030;SDS011;7090;49.436;8.490;2023-03-11T06:06:07;9.10;;;8.80;;
14030;SDS011;7090;49.436;8.490;2023-03-11T06:08:34;9.73;;;9.33;;
14030;SDS011;7090;49.436;8.490;2023-03-11T06:11:01;8.97;;;8.67;;
14030;SDS011;7090;49.436;8.490;2023-03-11T06:13:28;9.53;;;9.13;;
14030;SDS011;7090;49.436;8.490;2023-03-11T06:15:53;8.90;;;8.60;;
14030;SDS011;7090;49.436;8.490;2023-03-11T06:18:19;11.83;;;11.30;;
14030;SDS011;7090;49.436;8.490;2023-03-11T06:20:44;10.07;;;9.47;;
14030;SDS011;7090;49.436;8.490;2023-03-11T06:23:10;9.00;;;8.70;;
14030;SDS011;7090;49.436;8.490;2023-03-11T06:25:35;8.97;;;8.67;;
14030;SDS011;7090;49.436;8.490;2023-03-11T06:28:01;9.30;;;9.00;;
14030;SDS011;7090;49.436;8.490;2023-03-11T06:30:27;9.30;;;8.90;;
14030;SDS011;7090;49.436;8.490;2023-03-11T06:32:52;9.73;;;9.33;;
14030;SDS011;7090;49.436;8.490;2023-03-11T06:35:19;15.90;;;9.65;;
14030;SDS011;7090;49.436;8.490;2023-03-11T06:37:45;9.27;;;8.97;;
14030;SDS011;7090;49.436;8.490;2023-03-11T06:40:10;9.77;;;9.37;;
14030;SDS011;7090;49.436;8.490;2023-03-11T06:42:37;10.17;;;9.70;;
14030;SDS011;7090;49.436;8.490;2023-03-11T06:45:04;10.10;;;9.60;;
14030;SDS011;7090;49.436;8.490;2023-03-11T06:47:30;9.20;;;8.90;;
14030;SDS011;7090;49.436;8.490;2023-03-11T06:49:56;9.40;;;9.00;;
14030;SDS011;7090;49.436;8.490;2023-03-11T06:52:21;9.20;;;8.80;;
14030;SDS011;7090;49.436;8.490;2023-03-11T06:54:47;10.07;;;9.50;;
14030;SDS011;7090;49.436;8.490;2023-03-11T06:57:13;8.47;;;8.17;;
14030;SDS011;7090;49.436;8.490;2023-03-11T06:59:39;9.07;;;8.77;;
14030;SDS011;7090;49.436;8.490;2023-03-11T07:02:05;10.07;;;9.50;;
14030;SDS011;7090;49.436;8.490;2023-03-11T07:04:31;8.80;;;8.50;;
14030;SDS011;7090;49.436;8.490;2023-03-11T07:06:58;8.53;;;7.93;;
14030;SDS011;7090;49.436;8.490;2023-03-11T07:09:23;9.07;;;8.27;;
14030;SDS011;7090;49.436;8.490;2023-03-11T07:11:50;8.77;;;8.37;;
14030;SDS011;7090;49.436;8.490;2023-03-11T07:14:16;9.00;;;8.30;;
14030;SDS011;7090;49.436;8.490;2023-03-11T07:16:42;9.07;;;8.47;;
14030;SDS011;7090;49.436;8.490;2023-03-11T07:19:08;8.40;;;8.00;;
14030;SDS011;7090;49.436;8.490;2023-03-11T07:21:34;9.30;;;8.50;;
14030;SDS011;7090;49.436;8.490;2023-03-11T07:24:00;7.90;;;7.60;;
14030;SDS011;7090;49.436;8.490;2023-03-11T07:26:27;7.90;;;7.60;;
14030;SDS011;7090;49.436;8.490;2023-03-11T07:28:54;8.83;;;8.13;;
14030;SDS011;7090;49.436;8.490;2023-03-11T07:31:21;8.32;;;8.02;;
14030;SDS011;7090;49.436;8.490;2023-03-11T07:33:48;8.73;;;8.23;;
14030;SDS011;7090;49.436;8.490;2023-03-11T07:36:16;8.30;;;8.00;;
14030;SDS011;7090;49.436;8.490;2023-03-11T07:38:43;8.13;;;7.83;;
14030;SDS011;7090;49.436;8.490;2023-03-11T07:41:10;8.20;;;7.90;;
14030;SDS011;7090;49.436;8.490;2023-03-11T07:43:37;9.40;;;8.47;;
14030;SDS011;7090;49.436;8.490;2023-03-11T07:48:34;8.90;;;8.60;;
14030;SDS011;7090;49.436;8.490;2023-03-11T07:51:05;8.87;;;8.57;;
14030;SDS011;7090;49.436;8.490;2023-03-11T07:53:32;14.00;;;9.37;;
14030;SDS011;7090;49.436;8.490;2023-03-11T07:55:58;8.93;;;8.63;;
14030;SDS011;7090;49.436;8.490;2023-03-11T07:58:25;9.53;;;9.13;;
14030;SDS011;7090;49.436;8.490;2023-03-11T08:00:51;8.97;;;8.63;;
14030;SDS011;7090;49.436;8.490;2023-03-11T08:03:18;9.07;;;8.77;;
14030;SDS011;7090;49.436;8.490;2023-03-11T08:09:00;9.50;;;9.13;;
14030;SDS011;7090;49.436;8.490;2023-03-11T08:11:28;9.00;;;8.60;;
14030;SDS011;7090;49.436;8.490;2023-03-11T08:13:55;19.30;;;9.30;;
14030;SDS011;7090;49.436;8.490;2023-03-11T08:16:21;9.13;;;8.80;;
14030;SDS011;7090;49.436;8.490;2023-03-11T08:18:48;9.20;;;8.80;;
14030;SDS011;7090;49.436;8.490;2023-03-11T08:21:15;9.70;;;9.30;;
14030;SDS011;7090;49.436;8.490;2023-03-11T08:23:42;10.37;;;9.87;;
14030;SDS011;7090;49.436;8.490;2023-03-11T08:26:12;9.07;;;8.77;;
14030;SDS011;7090;49.436;8.490;2023-03-11T08:28:40;9.30;;;8.90;;
14030;SDS011;7090;49.436;8.490;2023-03-11T08:34:03;10.37;;;9.63;;
14030;SDS011;7090;49.436;8.490;2023-03-11T08:36:30;10.70;;;9.77;;
14030;SDS011;7090;49.436;8.490;2023-03-11T08:38:56;9.37;;;8.97;;
14030;SDS011;7090;49.436;8.490;2023-03-11T08:41:23;9.90;;;9.50;;
14030;SDS011;7090;49.436;8.490;2023-03-11T08:43:49;9.70;;;9.30;;
14030;SDS011;7090;49.436;8.490;2023-03-11T08:46:26;10.73;;;10.07;;
14030;SDS011;7090;49.436;8.490;2023-03-11T08:48:54;9.63;;;9.23;;
14030;SDS011;7090;49.436;8.490;2023-03-11T08:51:20;10.10;;;9.70;;
14030;SDS011;7090;49.436;8.490;2023-03-11T08:53:47;9.90;;;9.50;;
14030;SDS011;7090;49.436;8.490;2023-03-11T08:56:12;9.70;;;9.30;;
14030;SDS011;7090;49.436;8.490;2023-03-11T08:58:38;10.07;;;9.67;;
14030;SDS011;7090;49.436;8.490;2023-03-11T09:01:04;10.40;;;9.90;;
14030;SDS011;7090;49.436;8.490;2023-03-11T09:03:31;10.40;;;10.00;;
14030;SDS011;7090;49.436;8.490;2023-03-11T09:05:59;9.77;;;9.37;;
14030;SDS011;7090;49.436;8.490;2023-03-11T09:08:26;9.73;;;9.33;;
14030;SDS011;7090;49.436;8.490;2023-03-11T09:10:52;9.93;;;9.53;;
14030;SDS011;7090;49.436;8.490;2023-03-11T09:13:18;9.97;;;9.53;;
14030;SDS011;7090;49.436;8.490;2023-03-11T09:15:44;9.63;;;9.23;;
14030;SDS011;7090;49.436;8.490;2023-03-11T09:18:12;10.20;;;9.70;;
14030;SDS011;7090;49.436;8.490;2023-03-11T09:20:39;8.87;;;8.57;;
14030;SDS011;7090;49.436;8.490;2023-03-11T09:23:05;8.80;;;8.50;;
14030;SDS011;7090;49.436;8.490;2023-03-11T09:25:32;9.40;;;8.87;;
14030;SDS011;7090;49.436;8.490;2023-03-11T09:27:57;9.50;;;9.10;;
14030;SDS011;7090;49.436;8.490;2023-03-11T09:30:23;9.73;;;9.33;;
14030;SDS011;7090;49.436;8.490;2023-03-11T09:32:48;9.90;;;9.40;;
14030;SDS011;7090;49.436;8.490;2023-03-11T09:35:14;9.63;;;9.10;;
14030;SDS011;7090;49.436;8.490;2023-03-11T09:37:40;9.70;;;9.30;;
14030;SDS011;7090;49.436;8.490;2023-03-11T09:40:05;9.40;;;9.00;;
14030;SDS011;7090;49.436;8.490;2023-03-11T09:45:16;8.70;;;8.40;;
14030;SDS011;7090;49.436;8.490;2023-03-11T09:47:52;9.60;;;9.20;;
14030;SDS011;7090;49.436;8.490;2023-03-11T09:53:50;10.10;;;9.70;;
14030;SDS011;7090;49.436;8.490;2023-03-11T09:56:23;11.80;;;11.20;;
14030;SDS011;7090;49.436;8.490;2023-03-11T09:58:53;10.30;;;9.90;;
14030;SDS011;7090;49.436;8.490;2023-03-11T10:01:32;10.03;;;9.63;;
14030;SDS011;7090;49.436;8.490;2023-03-11T10:06:32;9.50;;;9.10;;
14030;SDS011;7090;49.436;8.490;2023-03-11T10:15:23;9.80;;;9.40;;
14030;SDS011;7090;49.436;8.490;2023-03-11T10:26:49;10.20;;;9.80;;
14030;SDS011;7090;49.436;8.490;2023-03-11T10:29:42;9.73;;;9.33;;
14030;SDS011;7090;49.436;8.490;2023-03-11T10:32:20;10.20;;;9.60;;
14030;SDS011;7090;49.436;8.490;2023-03-11T10:37:31;10.47;;;9.97;;
14030;SDS011;7090;49.436;8.490;2023-03-11T10:40:01;9.90;;;9.50;;
14030;SDS011;7090;49.436;8.490;2023-03-11T10:42:39;10.20;;;9.80;;
14030;SDS011;7090;49.436;8.490;2023-03-11T10:45:14;11.60;;;10.70;;
14030;SDS011;7090;49.436;8.490;2023-03-11T10:47:40;10.27;;;9.77;;
14030;SDS011;7090;49.436;8.490;2023-03-11T10:50:07;9.80;;;9.20;;
14030;SDS011;7090;49.436;8.490;2023-03-11T10:52:43;9.40;;;8.90;;
14030;SDS011;7090;49.436;8.490;2023-03-11T10:55:32;9.20;;;8.80;;
14030;SDS011;7090;49.436;8.490;2023-03-11T10:58:32;9.53;;;9.13;;
14030;SDS011;7090;49.436;8.490;2023-03-11T11:03:40;10.23;;;9.73;;
14030;SDS011;7090;49.436;8.490;2023-03-11T11:06:31;9.87;;;9.47;;
14030;SDS011;7090;49.436;8.490;2023-03-11T11:12:31;8.50;;;8.20;;
14030;SDS011;7090;49.436;8.490;2023-03-11T11:14:42;9.30;;;8.90;;
14030;SDS011;7090;49.436;8.490;2023-03-11T11:17:15;10.70;;;9.57;;
14030;SDS011;7090;49.436;8.490;2023-03-11T11:19:43;10.43;;;9.80;;
14030;SDS011;7090;49.436;8.490;2023-03-11T11:22:13;10.73;;;10.03;;
14030;SDS011;7090;49.436;8.490;2023-03-11T11:24:44;10.40;;;9.90;;
14030;SDS011;7090;49.436;8.490;2023-03-11T11:27:22;10.70;;;10.20;;
14030;SDS011;7090;49.436;8.490;2023-03-11T11:30:06;9.50;;;9.10;;
14030;SDS011;7090;49.436;8.490;2023-03-11T11:32:37;9.30;;;8.90;;
14030;SDS011;7090;49.436;8.490;2023-03-11T11:35:09;8.90;;;8.57;;
14030;SDS011;7090;49.436;8.490;2023-03-11T11:37:44;10.07;;;9.37;;
14030;SDS011;7090;49.436;8.490;2023-03-11T11:42:39;9.93;;;9.53;;
14030;SDS011;7090;49.436;8.490;2023-03-11T11:47:47;9.90;;;9.50;;
14030;SDS011;7090;49.436;8.490;2023-03-11T11:53:38;9.73;;;9.33;;
14030;SDS011;7090;49.436;8.490;2023-03-11T11:56:08;10.30;;;9.90;;
14030;SDS011;7090;49.436;8.490;2023-03-11T11:58:33;9.83;;;9.43;;
14030;SDS011;7090;49.436;8.490;2023-03-11T12:03:52;10.17;;;9.57;;
14030;SDS011;7090;49.436;8.490;2023-03-11T12:15:04;10.50;;;9.80;;
14030;SDS011;7090;49.436;8.490;2023-03-11T12:17:38;10.43;;;10.00;;
14030;SDS011;7090;49.436;8.490;2023-03-11T12:26:15;10.50;;;10.00;;
14030;SDS011;7090;49.436;8.490;2023-03-11T12:28:55;11.17;;;10.17;;
14030;SDS011;7090;49.436;8.490;2023-03-11T12:31:26;10.10;;;9.70;;
14030;SDS011;7090;49.436;8.490;2023-03-11T12:33:57;10.60;;;10.00;;
14030;SDS011;7090;49.436;8.490;2023-03-11T12:36:31;10.30;;;9.87;;
14030;SDS011;7090;49.436;8.490;2023-03-11T12:39:01;10.40;;;9.90;;
14030;SDS011;7090;49.436;8.490;2023-03-11T12:41:33;10.80;;;10.30;;
14030;SDS011;7090;49.436;8.490;2023-03-11T12:49:26;11.53;;;10.50;;
14030;SDS011;7090;49.436;8.490;2023-03-11T12:54:45;10.50;;;10.10;;
14030;SDS011;7090;49.436;8.490;2023-03-11T13:06:13;10.90;;;10.30;;
14030;SDS011;7090;49.436;8.490;2023-03-11T13:08:56;10.37;;;9.97;;
14030;SDS011;7090;49.436;8.490;2023-03-11T13:13:51;10.60;;;10.20;;
14030;SDS011;7090;49.436;8.490;2023-03-11T13:18:43;10.35;;;9.95;;
14030;SDS011;7090;49.436;8.490;2023-03-11T13:23:51;10.20;;;9.70;;
14030;SDS011;7090;49.436;8.490;2023-03-11T13:42:56;9.10;;;8.60;;
14030;SDS011;7090;49.436;8.490;2023-03-11T13:45:28;9.80;;;9.40;;
14030;SDS011;7090;49.436;8.490;2023-03-11T13:48:00;9.40;;;9.00;;
14030;SDS011;7090;49.436;8.490;2023-03-11T13:53:43;9.57;;;9.17;;
14030;SDS011;7090;49.436;8.490;2023-03-11T13:56:25;9.50;;;9.10;;
14030;SDS011;7090;49.436;8.490;2023-03-11T13:59:11;10.00;;;9.60;;
14030;SDS011;7090;49.436;8.490;2023-03-11T14:01:46;9.67;;;9.27;;
14030;SDS011;7090;49.436;8.490;2023-03-11T14:04:14;9.53;;;9.13;;
14030;SDS011;7090;49.436;8.490;2023-03-11T14:06:44;9.60;;;9.20;;
14030;SDS011;7090;49.436;8.490;2023-03-11T14:09:14;9.80;;;9.40;;
14030;SDS011;7090;49.436;8.490;2023-03-11T14:11:43;10.40;;;9.90;;
14030;SDS011;7090;49.436;8.490;2023-03-11T14:17:18;10.40;;;10.00;;
14030;SDS011;7090;49.436;8.490;2023-03-11T14:22:42;10.30;;;9.87;;
14030;SDS011;7090;49.436;8.490;2023-03-11T14:25:13;10.40;;;10.00;;
14030;SDS011;7090;49.436;8.490;2023-03-11T14:27:50;10.00;;;9.60;;
14030;SDS011;7090;49.436;8.490;2023-03-11T14:30:20;9.70;;;9.30;;
14030;SDS011;7090;49.436;8.490;2023-03-11T14:32:54;9.67;;;9.27;;
14030;SDS011;7090;49.436;8.490;2023-03-11T14:35:40;9.97;;;9.57;;
14030;SDS011;7090;49.436;8.490;2023-03-11T14:38:21;10.32;;;9.93;;
14030;SDS011;7090;49.436;8.490;2023-03-11T14:40:53;10.03;;;9.63;;
14030;SDS011;7090;49.436;8.490;2023-03-11T14:43:24;10.10;;;9.60;;
14030;SDS011;7090;49.436;8.490;2023-03-11T14:45:57;10.43;;;10.03;;
14030;SDS011;7090;49.436;8.490;2023-03-11T14:48:25;10.20;;;9.80;;
14030;SDS011;7090;49.436;8.490;2023-03-11T14:51:14;10.65;;;10.15;;
14030;SDS011;7090;49.436;8.490;2023-03-11T14:53:44;10.40;;;10.00;;
14030;SDS011;7090;49.436;8.490;2023-03-11T14:56:28;10.10;;;9.70;;
14030;SDS011;7090;49.436;8.490;2023-03-11T14:59:00;10.60;;;10.20;;
14030;SDS011;7090;49.436;8.490;2023-03-11T15:01:33;10.43;;;10.03;;
14030;SDS011;7090;49.436;8.490;2023-03-11T15:06:32;10.10;;;9.70;;
14030;SDS011;7090;49.436;8.490;2023-03-11T15:09:05;10.70;;;10.30;;
14030;SDS011;7090;49.436;8.490;2023-03-11T15:11:46;10.50;;;10.10;;
14030;SDS011;7090;49.436;8.490;2023-03-11T15:16:46;10.30;;;9.90;;
14030;SDS011;7090;49.436;8.490;2023-03-11T15:21:54;10.90;;;10.50;;
14030;SDS011;7090;49.436;8.490;2023-03-11T15:24:40;10.47;;;10.07;;
14030;SDS011;7090;49.436;8.490;2023-03-11T15:27:06;12.87;;;11.27;;
14030;SDS011;7090;49.436;8.490;2023-03-11T15:29:48;11.27;;;10.73;;
14030;SDS011;7090;49.436;8.490;2023-03-11T15:32:23;11.33;;;10.83;;
14030;SDS011;7090;49.436;8.490;2023-03-11T15:35:02;10.33;;;9.93;;
14030;SDS011;7090;49.436;8.490;2023-03-11T15:37:31;10.43;;;10.03;;
14030;SDS011;7090;49.436;8.490;2023-03-11T15:39:57;10.10;;;9.70;;
14030;SDS011;7090;49.436;8.490;2023-03-11T15:42:37;10.40;;;10.00;;
14030;SDS011;7090;49.436;8.490;2023-03-11T15:47:38;11.00;;;10.50;;
14030;SDS011;7090;49.436;8.490;2023-03-11T15:52:47;10.50;;;10.10;;
14030;SDS011;7090;49.436;8.490;2023-03-11T15:55:12;10.30;;;9.90;;
14030;SDS011;7090;49.436;8.490;2023-03-11T15:57:38;11.10;;;10.40;;
14030;SDS011;7090;49.436;8.490;2023-03-11T16:00:06;10.73;;;10.33;;
14030;SDS011;7090;49.436;8.490;2023-03-11T16:02:45;10.90;;;10.40;;
14030;SDS011;7090;49.436;8.490;2023-03-11T16:05:11;10.33;;;9.93;;
14030;SDS011;7090;49.436;8.490;2023-03-11T16:10:41;10.60;;;10.20;;
14030;SDS011;7090;49.436;8.490;2023-03-11T16:13:13;10.20;;;9.77;;
14030;SDS011;7090;49.436;8.490;2023-03-11T16:15:40;10.60;;;10.10;;
14030;SDS011;7090;49.436;8.490;2023-03-11T16:18:06;10.53;;;10.13;;
14030;SDS011;7090;49.436;8.490;2023-03-11T16:20:35;11.00;;;10.40;;
14030;SDS011;7090;49.436;8.490;2023-03-11T16:23:11;11.00;;;10.30;;
14030;SDS011;7090;49.436;8.490;2023-03-11T16:25:45;11.00;;;10.50;;
14030;SDS011;7090;49.436;8.490;2023-03-11T16:28:14;10.90;;;10.40;;
14030;SDS011;7090;49.436;8.490;2023-03-11T16:30:41;10.50;;;10.10;;
14030;SDS011;7090;49.436;8.490;2023-03-11T16:33:07;10.73;;;10.13;;
14030;SDS011;7090;49.436;8.490;2023-03-11T16:35:32;10.80;;;10.40;;
14030;SDS011;7090;49.436;8.490;2023-03-11T16:37:58;10.80;;;10.30;;
14030;SDS011;7090;49.436;8.490;2023-03-11T16:40:25;10.23;;;9.70;;
14030;SDS011;7090;49.436;8.490;2023-03-11T16:43:02;10.23;;;9.83;;
14030;SDS011;7090;49.436;8.490;2023-03-11T16:45:30;9.33;;;9.03;;
14030;SDS011;7090;49.436;8.490;2023-03-11T16:47:56;10.00;;;9.50;;
14030;SDS011;7090;49.436;8.490;2023-03-11T16:50:22;11.27;;;10.77;;
14030;SDS011;7090;49.436;8.490;2023-03-11T16:52:51;10.07;;;9.67;;
14030;SDS011;7090;49.436;8.490;2023-03-11T16:55:18;10.43;;;9.93;;
14030;SDS011;7090;49.436;8.490;2023-03-11T16:57:43;10.70;;;10.30;;
14030;SDS011;7090;49.436;8.490;2023-03-11T17:00:09;10.00;;;9.60;;
14030;SDS011;7090;49.436;8.490;2023-03-11T17:02:36;10.50;;;10.10;;
14030;SDS011;7090;49.436;8.490;2023-03-11T17:05:03;9.90;;;9.50;;
14030;SDS011;7090;49.436;8.490;2023-03-11T17:07:30;9.40;;;9.10;;
14030;SDS011;7090;49.436;8.490;2023-03-11T17:09:56;9.70;;;9.30;;
14030;SDS011;7090;49.436;8.490;2023-03-11T17:12:23;9.77;;;9.37;;
14030;SDS011;7090;49.436;8.490;2023-03-11T17:14:49;9.50;;;9.10;;
14030;SDS011;7090;49.436;8.490;2023-03-11T17:17:16;9.60;;;9.20;;
14030;SDS011;7090;49.436;8.490;2023-03-11T17:19:41;8.70;;;8.40;;